Morysville, Pennsylvania
Current Conditions -  °F | °C
As of 4:54 PM on Friday 24 Oct 2014 (Local Time) from KPTW Reporting Station
Clear Clear  
Wind Chill: 65°   Ceiling: Unl
Heat Index: 65°   Visibility: 10mi
Dew Point: 43°   Wind: 9mph
Humidity: 45%   Direction: 300°WNW
Pressure: 29.82"   Gusts: NA
Location:  40.3481°N, 75.6818°W
Report Text: KPTW 242054Z AUTO 30008KT 10SM CLR 18/06 A2982 RMK AO2 SLP096 T01830061 55006
Loading
Personal Weather Stations






























Interactive Weather Map
Tropical Storm Tracking
New forecast layout! Learn more

10-Day Weather Forecast

Advertisements
Track Severe Weather on mobile